Time;durP1;ratioP1;P1;durP2;ratioP2;P2;SDS_P1;SDS_P2;PMS_P1;PMS_P2;Temp;Humidity;BMP_temperature;BMP_pressure;BME280_temperature;BME280_humidity;BME280_pressure;Samples;Min_cycle;Max_cycle;Signal;HPM_P1;HPM_P2
2022/05/05 00:01:59;;;;;;;20.20;12.35;;;;;;;11.21;73.49;100345.59;2912317;80;20985;-90
2022/05/05 00:06:00;;;;;;;17.60;14.35;;;;;;;11.22;73.79;100347.28;2945119;80;21043;-90
2022/05/05 00:14:23;;;;;;;25.30;20.27;;;;;;;11.24;73.58;100346.19;2929736;80;21715;-91
2022/05/05 00:18:24;;;;;;;32.08;13.80;;;;;;;11.29;73.61;100342.64;2943174;80;21047;-90
2022/05/05 00:22:25;;;;;;;13.88;11.70;;;;;;;11.27;73.65;100340.60;2907524;80;21054;-90
2022/05/05 00:26:26;;;;;;;20.02;11.35;;;;;;;11.29;73.68;100342.64;2916762;79;21030;-90
2022/05/05 00:30:29;;;;;;;15.03;10.95;;;;;;;11.22;72.46;100338.82;2897414;80;21011;-90
2022/05/05 00:34:30;;;;;;;18.80;12.90;;;;;;;11.11;72.33;100340.19;2909145;79;21070;-90
2022/05/05 00:38:31;;;;;;;15.40;11.35;;;;;;;10.99;72.86;100332.24;2933582;80;21012;-91
2022/05/05 00:42:32;;;;;;;18.10;11.25;;;;;;;10.96;73.07;100337.00;2950400;80;21606;-90
2022/05/05 00:46:33;;;;;;;14.50;12.65;;;;;;;10.94;73.03;100337.61;2942232;80;21660;-91
2022/05/05 00:50:36;;;;;;;17.87;11.28;;;;;;;10.95;73.42;100341.97;2888168;79;21019;-90
2022/05/05 00:54:38;;;;;;;21.05;12.07;;;;;;;10.89;73.56;100327.81;2950244;80;21280;-91
2022/05/05 00:58:42;;;;;;;18.12;12.90;;;;;;;10.82;73.52;100331.48;2939693;79;21105;-91
2022/05/05 01:02:44;;;;;;;21.60;13.13;;;;;;;10.77;73.64;100333.66;2887926;80;21077;-91
2022/05/05 01:06:45;;;;;;;23.87;14.75;;;;;;;10.71;74.14;100329.21;2917267;80;21107;-90
2022/05/05 01:10:46;;;;;;;17.27;10.50;;;;;;;10.68;74.02;100335.26;2940973;80;21012;-91
2022/05/05 01:14:47;;;;;;;26.77;14.10;;;;;;;10.69;73.96;100335.62;2914994;80;21033;-91
2022/05/05 01:18:51;;;;;;;19.65;11.60;;;;;;;10.63;73.88;100336.13;2903682;80;21007;-91
2022/05/05 01:22:51;;;;;;;15.75;11.50;;;;;;;10.56;73.74;100337.11;2879715;79;21035;-91
2022/05/05 01:31:12;;;;;;;19.20;9.60;;;;;;;10.41;73.70;100353.33;2943624;79;21130;-90
2022/05/05 01:35:13;;;;;;;14.73;10.55;;;;;;;10.35;73.67;100368.42;2945984;80;21512;-90
2022/05/05 01:39:14;;;;;;;14.47;10.70;;;;;;;10.26;73.37;100359.36;2868995;80;21006;-90
2022/05/05 01:43:19;;;;;;;15.40;9.23;;;;;;;10.14;73.58;100354.53;2916877;80;21019;-90
2022/05/05 01:47:20;;;;;;;13.50;9.15;;;;;;;10.05;73.70;100363.25;2908754;80;21504;-89
2022/05/05 01:51:23;;;;;;;20.57;12.90;;;;;;;9.91;74.17;100363.48;2841262;81;20979;-90
2022/05/05 01:55:24;;;;;;;29.48;15.80;;;;;;;9.78;75.14;100361.76;2928022;79;21018;-92
2022/05/05 01:59:25;;;;;;;41.75;18.02;;;;;;;9.67;76.28;100361.77;2898064;80;21025;-90
2022/05/05 02:03:26;;;;;;;18.35;12.98;;;;;;;9.65;76.36;100363.69;2919762;80;21035;-89
2022/05/05 02:07:27;;;;;;;24.82;13.90;;;;;;;9.46;78.79;100358.46;2912072;79;20991;-90
2022/05/05 02:11:28;;;;;;;19.90;12.98;;;;;;;9.12;80.74;100364.48;2892776;80;21042;-90
2022/05/05 02:15:29;;;;;;;16.90;11.65;;;;;;;9.00;80.45;100368.06;2806837;82;21614;-90
2022/05/05 02:19:31;;;;;;;17.60;11.18;;;;;;;9.07;80.18;100357.35;2805617;82;21577;-91
2022/05/05 02:23:32;;;;;;;18.35;11.60;;;;;;;9.19;79.72;100359.56;2839457;82;20959;-91
2022/05/05 02:27:49;;;;;;;17.40;11.43;;;;;;;9.27;78.81;100350.56;2833694;82;21017;-90
2022/05/05 02:31:50;;;;;;;13.30;10.82;;;;;;;9.38;78.21;100348.42;2842479;82;21554;-91
2022/05/05 02:38:42;;;;;;;15.10;12.60;;;;;;;9.44;78.13;100339.15;2845256;82;21483;-90
2022/05/05 02:39:54;;;;;;;18.35;11.40;;;;;;;9.46;78.60;100339.88;2840532;82;21018;-90
2022/05/05 02:43:56;;;;;;;20.20;13.68;;;;;;;9.45;78.97;100331.55;2820628;82;32776;-90
2022/05/05 02:47:59;;;;;;;15.65;11.88;;;;;;;9.27;81.37;100331.12;2832429;82;21054;-91
2022/05/05 02:52:00;;;;;;;15.88;10.88;;;;;;;9.19;81.31;100335.68;2838747;82;21065;-90
2022/05/05 02:56:01;;;;;;;19.95;13.00;;;;;;;9.14;80.61;100342.68;2870002;82;21054;-89
2022/05/05 03:00:07;;;;;;;15.88;14.05;;;;;;;9.13;80.22;100347.59;2843614;82;21073;-89
2022/05/05 03:04:08;;;;;;;25.37;16.05;;;;;;;9.21;79.84;100339.55;2841652;82;21893;-91
2022/05/05 03:08:09;;;;;;;18.45;13.22;;;;;;;9.14;80.35;100345.34;2848838;82;21034;-90
2022/05/05 03:12:11;;;;;;;17.87;11.10;;;;;;;9.14;80.81;100348.45;2867138;81;21531;-91
2022/05/05 03:16:12;;;;;;;17.92;14.85;;;;;;;9.14;79.66;100353.77;2887911;80;21050;-91
2022/05/05 03:20:13;;;;;;;15.70;12.18;;;;;;;9.20;79.25;100358.60;2848890;80;21580;-88
2022/05/05 03:24:14;;;;;;;19.40;13.53;;;;;;;9.23;79.08;100365.00;2847757;82;21669;-90
2022/05/05 03:28:15;;;;;;;24.12;15.05;;;;;;;9.27;78.57;100366.48;2857161;82;21037;-89
2022/05/05 03:32:16;;;;;;;24.12;15.05;;;;;;;9.29;79.14;100372.53;2824512;82;21548;-89
2022/05/05 03:36:18;;;;;;;13.62;11.28;;;;;;;9.14;80.80;100365.70;2833859;82;21606;-89
2022/05/05 03:40:19;;;;;;;15.23;11.83;;;;;;;8.92;80.79;100371.28;2833568;82;21648;-89
2022/05/05 03:44:20;;;;;;;15.85;12.43;;;;;;;8.79;81.22;100371.80;2712850;84;21434;-92
2022/05/05 03:48:21;;;;;;;16.32;14.00;;;;;;;8.89;81.55;100374.62;2870283;81;21038;-90
2022/05/05 03:52:23;;;;;;;13.40;10.72;;;;;;;9.09;81.76;100371.84;2885024;80;21164;-91
2022/05/05 03:56:24;;;;;;;14.05;12.15;;;;;;;9.05;80.32;100371.71;2802029;82;21023;-90
2022/05/05 04:00:25;;;;;;;19.98;14.30;;;;;;;9.08;82.11;100378.11;2845333;82;21062;-90
2022/05/05 04:04:26;;;;;;;30.57;16.42;;;;;;;8.98;84.37;100375.30;2911409;79;21011;-91
2022/05/05 04:08:27;;;;;;;29.18;17.48;;;;;;;8.98;85.83;100380.60;2914048;80;21005;-91
2022/05/05 04:12:28;;;;;;;25.15;15.90;;;;;;;9.43;85.89;100387.88;2917697;80;20998;-90
2022/05/05 04:16:33;;;;;;;22.90;17.40;;;;;;;10.18;84.67;100386.19;2912979;79;21042;-89
2022/05/05 04:20:35;;;;;;;17.90;13.93;;;;;;;10.75;81.83;100383.50;2920191;79;21057;-89
2022/05/05 04:24:35;;;;;;;24.43;16.30;;;;;;;11.08;80.17;100383.05;2941941;79;20997;-91
2022/05/05 04:28:36;;;;;;;24.00;17.15;;;;;;;11.50;77.87;100383.59;2932466;79;21105;-89
2022/05/05 04:32:37;;;;;;;73.75;27.80;;;;;;;11.83;76.19;100388.34;2923123;79;21550;-90
2022/05/05 04:36:39;;;;;;;34.23;21.17;;;;;;;12.11;75.22;100390.01;2910552;79;21022;-91
2022/05/05 04:40:40;;;;;;;23.45;16.67;;;;;;;12.74;74.91;100382.74;2904061;80;20995;-89
2022/05/05 04:44:42;;;;;;;20.17;17.50;;;;;;;13.70;72.48;100390.95;2931798;79;21038;-90
2022/05/05 04:48:43;;;;;;;37.65;19.60;;;;;;;14.30;69.38;100390.77;2925444;80;21072;-90
2022/05/05 04:52:45;;;;;;;23.12;17.40;;;;;;;14.45;69.56;100385.75;2772922;83;21079;-89
2022/05/05 04:56:46;;;;;;;23.15;15.75;;;;;;;14.72;67.80;100391.62;2860921;82;21050;-89
2022/05/05 05:00:47;;;;;;;23.42;16.95;;;;;;;14.77;67.53;100385.31;2857092;81;21059;-88
2022/05/05 05:04:48;;;;;;;25.77;15.93;;;;;;;14.78;68.04;100380.81;2825042;82;21153;-90
2022/05/05 05:08:49;;;;;;;21.02;17.20;;;;;;;14.80;68.63;100386.86;2857763;80;21009;-90
2022/05/05 05:12:51;;;;;;;20.62;16.30;;;;;;;15.16;68.96;100385.54;2918122;79;21066;-90
2022/05/05 05:16:52;;;;;;;22.48;15.75;;;;;;;15.95;68.03;100380.80;2861339;79;21024;-88
2022/05/05 05:20:53;;;;;;;22.27;15.40;;;;;;;16.36;66.81;100385.02;2933898;79;21036;-89
2022/05/05 05:24:54;;;;;;;19.05;15.88;;;;;;;16.41;66.33;100377.83;2934881;80;21010;-90
2022/05/05 05:28:55;;;;;;;24.15;16.50;;;;;;;16.62;67.29;100387.30;2866975;79;21055;-90
2022/05/05 05:32:56;;;;;;;82.95;25.30;;;;;;;16.95;66.53;100389.55;2924640;79;21054;-89
2022/05/05 05:36:57;;;;;;;22.65;15.25;;;;;;;17.34;66.47;100385.93;2891408;79;21368;-88
2022/05/05 05:40:58;;;;;;;16.80;14.55;;;;;;;17.86;66.22;100395.46;2893525;79;21052;-90
2022/05/05 05:45:00;;;;;;;21.68;17.02;;;;;;;18.29;64.20;100404.64;2923000;79;21102;-90
2022/05/05 05:49:01;;;;;;;19.05;14.93;;;;;;;18.73;64.12;100400.55;2855186;80;21021;-92
2022/05/05 05:53:02;;;;;;;20.35;16.90;;;;;;;19.37;63.53;100401.34;2932363;79;21605;-92
2022/05/05 05:57:04;;;;;;;15.80;13.93;;;;;;;19.90;61.75;100409.98;2941225;79;21561;-92
2022/05/05 06:01:06;;;;;;;21.50;16.15;;;;;;;20.32;61.35;100412.58;2894526;80;21026;-92
2022/05/05 06:05:07;;;;;;;17.82;14.73;;;;;;;20.66;61.26;100413.00;2892236;80;21048;-93
2022/05/05 06:09:09;;;;;;;18.87;14.78;;;;;;;21.22;59.57;100404.80;2903571;80;21048;-93
2022/05/05 06:13:10;;;;;;;22.85;14.93;;;;;;;21.87;60.01;100406.62;2916413;79;21501;-92
2022/05/05 06:17:11;;;;;;;21.02;12.75;;;;;;;21.93;56.68;100408.52;2928247;79;21583;-92
2022/05/05 06:21:12;;;;;;;55.10;19.30;;;;;;;21.44;57.08;100411.05;2889737;79;21635;-91
2022/05/05 06:25:14;;;;;;;14.38;12.43;;;;;;;21.57;57.99;100410.82;2917957;79;20985;-88
2022/05/05 06:29:15;;;;;;;13.95;11.70;;;;;;;21.46;56.94;100414.39;2910477;80;21037;-90
2022/05/05 06:33:16;;;;;;;17.35;10.70;;;;;;;21.35;57.21;100420.31;2918781;79;21020;-90
2022/05/05 06:37:17;;;;;;;42.10;14.95;;;;;;;21.42;56.80;100426.64;2926383;80;21042;-89
2022/05/05 06:41:18;;;;;;;14.55;10.78;;;;;;;21.75;58.20;100423.92;2927403;79;21025;-88
2022/05/05 06:45:19;;;;;;;14.65;10.30;;;;;;;21.97;56.73;100425.54;2889258;80;21042;-89
2022/05/05 06:49:20;;;;;;;15.58;10.90;;;;;;;22.09;55.63;100431.74;2928532;79;21121;-89
2022/05/05 06:53:21;;;;;;;16.70;11.28;;;;;;;22.10;57.11;100422.08;2884455;80;20997;-89
2022/05/05 06:57:23;;;;;;;20.45;11.70;;;;;;;22.27;57.50;100425.83;2860922;80;21099;-88
2022/05/05 07:05:43;;;;;;;17.95;13.88;;;;;;;22.84;55.79;100431.11;2892158;80;21037;-89
2022/05/05 07:14:07;;;;;;;12.93;11.25;;;;;;;23.05;55.96;100423.33;2885596;80;20986;-88
2022/05/05 07:18:08;;;;;;;13.60;11.28;;;;;;;23.20;55.56;100424.52;2814406;81;21045;-89
2022/05/05 07:22:09;;;;;;;12.37;11.00;;;;;;;23.17;55.01;100424.91;2841391;79;21026;-88
2022/05/05 07:26:10;;;;;;;13.68;10.68;;;;;;;23.44;55.98;100430.42;2843488;79;21013;-89
2022/05/05 07:30:13;;;;;;;12.65;9.85;;;;;;;23.82;55.02;100429.80;2839492;79;21315;-88
2022/05/05 07:34:15;;;;;;;13.00;11.05;;;;;;;24.10;54.33;100421.11;2875736;79;20979;-89
2022/05/05 07:38:16;;;;;;;14.40;10.25;;;;;;;24.37;54.64;100423.23;2863888;81;20952;-90
2022/05/05 07:42:17;;;;;;;32.50;26.52;;;;;;;24.44;54.35;100426.45;2862071;81;21699;-88
2022/05/05 07:46:18;;;;;;;16.90;10.55;;;;;;;24.56;55.17;100431.51;2843108;79;21056;-89
2022/05/05 07:50:20;;;;;;;14.47;10.48;;;;;;;24.62;53.33;100432.03;2861744;81;21009;-88
2022/05/05 07:54:43;;;;;;;12.95;8.55;;;;;;;24.60;52.81;100435.49;2844921;79;21006;-88
2022/05/05 07:58:43;;;;;;;13.55;9.43;;;;;;;24.61;52.70;100432.23;2895225;80;21034;-87
2022/05/05 08:02:44;;;;;;;10.30;8.35;;;;;;;24.67;53.11;100432.75;2843661;81;20962;-89
2022/05/05 08:06:45;;;;;;;7.85;6.42;;;;;;;24.77;53.29;100437.76;2836846;80;21053;-89
2022/05/05 08:10:47;;;;;;;8.23;6.95;;;;;;;24.81;52.50;100436.27;2845975;81;21029;-89
2022/05/05 08:14:48;;;;;;;14.53;10.53;;;;;;;25.01;53.66;100439.41;2781642;80;21042;-88
2022/05/05 08:18:49;;;;;;;14.13;9.50;;;;;;;25.12;55.10;100441.95;2811118;83;21034;-89
2022/05/05 08:22:50;;;;;;;16.40;14.03;;;;;;;25.03;54.52;100446.82;2809132;80;21521;-89
2022/05/05 08:31:12;;;;;;;23.77;13.45;;;;;;;24.59;56.70;100444.70;2826127;80;21015;-89
2022/05/05 08:35:13;;;;;;;15.83;11.83;;;;;;;24.30;58.18;100446.05;2838986;82;21015;-89
2022/05/05 08:39:14;;;;;;;19.77;12.78;;;;;;;24.21;58.68;100445.44;2789367;82;21038;-89
2022/05/05 08:43:15;;;;;;;16.52;12.58;;;;;;;24.23;59.34;100441.98;2855187;80;21070;-89
2022/05/05 08:47:17;;;;;;;19.37;13.00;;;;;;;24.35;59.39;100453.03;2805493;81;21003;-89
2022/05/05 08:51:20;;;;;;;18.73;12.55;;;;;;;24.47;57.27;100443.17;2843409;82;21679;-89
2022/05/05 08:55:22;;;;;;;13.22;11.57;;;;;;;24.49;56.96;100441.58;2806753;80;21640;-90
2022/05/05 08:59:24;;;;;;;13.83;12.35;;;;;;;24.29;56.38;100443.84;2754207;80;21172;-89
2022/05/05 09:03:25;;;;;;;15.68;12.63;;;;;;;24.15;55.25;100440.83;2774381;82;20995;-89
2022/05/05 09:07:48;;;;;;;19.37;12.43;;;;;;;23.93;56.67;100439.19;2838341;82;21050;-88
2022/05/05 09:12:19;;;;;;;14.68;10.95;;;;;;;23.82;56.98;100447.45;2856399;80;21672;-89
2022/05/05 09:16:26;;;;;;;13.22;11.88;;;;;;;23.72;56.05;100451.09;2943077;79;21552;-89
2022/05/05 09:20:36;;;;;;;12.68;10.15;;;;;;;23.67;54.81;100457.68;2934024;79;21496;-89
2022/05/05 09:24:41;;;;;;;32.15;10.70;;;;;;;23.72;54.84;100452.98;2950709;78;20985;-88
2022/05/05 09:28:42;;;;;;;13.20;10.57;;;;;;;23.71;55.35;100452.14;2935337;80;21034;-89
2022/05/05 09:32:46;;;;;;;47.83;17.70;;;;;;;23.76;53.36;100448.27;2880158;80;21022;-88
2022/05/05 09:36:47;;;;;;;19.87;12.55;;;;;;;23.65;56.28;100455.70;2876561;79;20985;-89
2022/05/05 09:41:03;;;;;;;20.75;13.40;;;;;;;23.44;57.62;100459.43;2932909;79;21027;-89
2022/05/05 09:45:24;;;;;;;13.08;10.48;;;;;;;23.63;57.49;100457.25;2930770;80;21042;-88
2022/05/05 09:49:25;;;;;;;16.20;11.93;;;;;;;23.86;55.86;100451.09;2917849;80;21105;-89
2022/05/05 09:57:47;;;;;;;11.08;9.40;;;;;;;24.22;54.02;100455.27;2911740;80;21065;-89
2022/05/05 10:01:51;;;;;;;15.65;12.05;;;;;;;24.45;54.05;100453.94;2942063;80;21034;-89
2022/05/05 10:05:54;;;;;;;18.07;11.35;;;;;;;24.51;53.97;100450.36;2948949;80;21024;-89
2022/05/05 10:09:55;;;;;;;13.93;12.45;;;;;;;24.64;53.54;100448.11;2923794;80;21028;-88
2022/05/05 10:14:00;;;;;;;12.07;10.10;;;;;;;24.68;54.13;100450.19;2909031;80;21764;-90
2022/05/05 10:18:05;;;;;;;17.47;10.63;;;;;;;24.73;53.89;100443.27;2794057;81;21107;-90
2022/05/05 10:22:13;;;;;;;;;;;;;;;24.82;54.96;100442.02;2910404;79;21046;-89
2022/05/05 10:26:18;;;;;;;22.00;10.85;;;;;;;24.85;53.87;100444.30;2862978;81;20145;-88
2022/05/05 10:30:34;;;;;;;10.53;8.13;;;;;;;24.99;52.04;100433.35;2892481;79;21031;-89
2022/05/05 10:34:41;;;;;;;12.78;9.13;;;;;;;25.23;51.05;100423.03;2863438;79;21104;-89
2022/05/05 10:38:43;;;;;;;11.25;9.85;;;;;;;25.41;53.02;100418.72;2857504;81;21023;-89
2022/05/05 10:42:51;;;;;;;11.85;9.65;;;;;;;25.51;52.17;100408.73;2849443;81;21528;-89
2022/05/05 10:47:02;;;;;;;12.20;9.80;;;;;;;25.53;51.94;100410.15;2879029;79;21181;-89
2022/05/05 10:51:05;;;;;;;66.92;17.55;;;;;;;25.51;53.10;100412.81;2877379;79;20999;-89
2022/05/05 10:55:27;;;;;;;10.43;8.33;;;;;;;25.32;52.35;100415.95;2873051;79;21082;-88
2022/05/05 10:59:30;;;;;;;10.65;8.83;;;;;;;25.12;52.05;100422.36;2889386;81;21051;-90
2022/05/05 11:03:31;;;;;;;8.85;8.10;;;;;;;25.30;51.37;100417.55;2881748;81;20995;-89
2022/05/05 11:07:36;;;;;;;10.20;9.13;;;;;;;25.55;52.23;100421.34;2810588;82;21021;-90
2022/05/05 11:11:41;;;;;;;12.78;9.95;;;;;;;25.47;51.27;100419.22;2820254;83;21603;-94
2022/05/05 11:24:39;;;;;;;9.25;7.70;;;;;;;24.46;55.54;100435.22;2823377;83;21125;-94
2022/05/05 11:28:40;;;;;;;12.85;9.90;;;;;;;23.69;55.38;100435.23;2828475;82;21150;-93
2022/05/05 11:32:43;;;;;;;49.27;15.08;;;;;;;23.05;57.42;100446.92;2827011;82;21114;-90
2022/05/05 11:36:45;;;;;;;12.13;9.25;;;;;;;22.58;59.51;100457.05;2847295;82;21031;-91
2022/05/05 11:40:46;;;;;;;9.20;8.30;;;;;;;22.34;59.76;100459.73;2900349;79;21057;-89
2022/05/05 11:44:48;;;;;;;15.88;9.78;;;;;;;22.05;61.61;100470.59;2841703;79;21643;-90
2022/05/05 11:48:58;;;;;;;9.18;6.15;;;;;;;21.30;66.14;100482.28;2905819;80;20959;-90
2022/05/05 11:52:59;;;;;;;13.53;5.20;;;;;;;20.21;68.77;100505.72;2918257;79;21396;-90
2022/05/05 11:57:01;;;;;;;4.67;4.28;;;;;;;19.19;71.70;100502.25;2880650;79;20999;-89
2022/05/05 12:05:32;;;;;;;4.80;4.28;;;;;;;18.01;75.70;100495.17;2893891;80;21060;-90
2022/05/05 12:09:33;;;;;;;6.42;5.83;;;;;;;17.68;76.33;100503.23;2926562;79;21017;-90
2022/05/05 12:13:37;;;;;;;10.30;8.60;;;;;;;17.45;79.30;100483.72;2919574;80;21030;-90
2022/05/05 12:17:42;;;;;;;10.23;8.40;;;;;;;17.27;82.52;100475.29;2900799;80;21004;-90
2022/05/05 12:21:54;;;;;;;8.38;6.42;;;;;;;17.16;83.25;100471.59;2917075;80;21022;-91
2022/05/05 12:25:55;;;;;;;11.28;7.67;;;;;;;17.08;83.51;100468.86;2925547;80;22696;-90
2022/05/05 12:29:56;;;;;;;6.00;5.40;;;;;;;17.05;83.65;100460.65;2924584;80;21042;-91
2022/05/05 12:33:57;;;;;;;6.22;4.37;;;;;;;17.03;82.20;100449.72;2939075;78;21348;-91
2022/05/05 12:38:01;;;;;;;6.35;5.60;;;;;;;17.15;81.36;100463.19;2929072;79;21062;-88
2022/05/05 12:42:02;;;;;;;6.60;5.37;;;;;;;17.38;80.11;100466.06;2923673;80;21083;-89
2022/05/05 12:46:05;;;;;;;5.67;4.37;;;;;;;17.69;81.55;100473.49;2925106;80;20999;-91
2022/05/05 12:50:31;;;;;;;5.15;4.65;;;;;;;18.00;79.78;100466.58;2849402;80;21038;-88
2022/05/05 13:03:14;;;;;;;2.42;2.27;;;;;;;19.51;72.60;100464.45;2920734;80;21546;-90
2022/05/05 13:07:15;;;;;;;3.08;2.67;;;;;;;19.97;72.69;100462.23;2915960;79;22137;-91
2022/05/05 13:11:18;;;;;;;4.00;1.70;;;;;;;20.36;71.91;100463.85;2899108;80;21048;-91
2022/05/05 13:15:20;;;;;;;2.12;1.82;;;;;;;20.67;67.21;100470.94;2908189;80;21033;-93
2022/05/05 13:19:23;;;;;;;4.25;3.72;;;;;;;20.85;68.84;100476.48;2899370;80;20991;-88
2022/05/05 13:23:24;;;;;;;6.50;3.30;;;;;;;20.98;72.36;100492.03;2912173;80;21068;-91
2022/05/05 13:27:25;;;;;;;5.85;3.77;;;;;;;21.19;71.39;100495.80;2885690;80;21110;-90
2022/05/05 13:31:26;;;;;;;4.78;4.28;;;;;;;21.21;69.70;100513.49;2888848;81;21054;-92
2022/05/05 13:35:27;;;;;;;6.87;4.37;;;;;;;21.18;70.60;100513.88;2867546;81;21054;-91
2022/05/05 13:39:29;;;;;;;8.93;8.03;;;;;;;20.94;68.99;100505.08;2894437;80;21094;-90
2022/05/05 13:43:30;;;;;;;11.33;10.23;;;;;;;20.85;73.23;100512.98;2895111;80;21534;-91
2022/05/05 13:47:31;;;;;;;10.48;9.23;;;;;;;21.04;75.42;100508.84;2915181;79;21016;-89
2022/05/05 13:51:32;;;;;;;10.30;9.28;;;;;;;21.41;74.44;100495.28;2903652;80;21040;-90
2022/05/05 13:55:34;;;;;;;17.75;11.25;;;;;;;21.61;72.54;100490.09;2903155;80;21030;-90
2022/05/05 13:59:37;;;;;;;11.88;10.48;;;;;;;21.58;72.97;100494.53;2913247;80;20975;-91
2022/05/05 14:03:39;;;;;;;11.30;10.10;;;;;;;21.42;72.95;100490.73;2910892;80;21062;-90
2022/05/05 14:12:13;;;;;;;13.78;10.72;;;;;;;21.41;72.93;100495.28;2915756;80;21055;-91
2022/05/05 14:16:14;;;;;;;13.10;11.38;;;;;;;21.33;70.97;100502.19;2887376;81;21003;-91
2022/05/05 14:20:16;;;;;;;10.75;9.65;;;;;;;21.20;71.05;100509.11;2876479;81;21011;-90
2022/05/05 14:24:18;;;;;;;14.40;10.88;;;;;;;21.02;70.47;100523.56;2779789;82;21007;-89
2022/05/05 14:28:19;;;;;;;12.28;8.15;;;;;;;20.79;71.35;100519.09;2827223;82;20984;-90
2022/05/05 14:32:20;;;;;;;11.93;9.63;;;;;;;20.57;69.77;100523.06;2824231;82;21041;-90
2022/05/05 14:36:21;;;;;;;10.50;9.38;;;;;;;20.30;71.18;100529.43;2830403;82;21053;-90
2022/05/05 14:40:22;;;;;;;11.08;9.90;;;;;;;20.24;72.43;100537.75;2805451;82;21043;-90
2022/05/05 14:44:24;;;;;;;10.03;9.03;;;;;;;20.30;72.88;100544.28;2830494;82;21030;-90
2022/05/05 14:48:25;;;;;;;9.65;8.73;;;;;;;20.36;72.98;100542.19;2831551;82;21046;-90
2022/05/05 14:52:26;;;;;;;12.98;10.68;;;;;;;20.46;72.05;100549.20;2833352;82;20999;-90
2022/05/05 14:56:28;;;;;;;18.27;14.55;;;;;;;20.53;71.20;100559.06;2832081;81;21511;-90
2022/05/05 15:00:29;;;;;;;14.53;12.13;;;;;;;20.52;73.03;100564.67;2831794;82;21054;-90
2022/05/05 15:04:30;;;;;;;10.68;9.55;;;;;;;20.57;75.41;100563.59;2829188;82;20990;-90
2022/05/05 15:08:31;;;;;;;11.10;9.68;;;;;;;20.51;74.22;100555.70;2830791;82;21003;-90
2022/05/05 15:12:33;;;;;;;9.95;8.93;;;;;;;20.53;74.50;100549.60;2831060;81;21025;-90
2022/05/05 15:16:34;;;;;;;14.07;9.50;;;;;;;20.60;74.07;100545.66;2863489;81;20984;-89
2022/05/05 15:20:35;;;;;;;11.28;9.40;;;;;;;20.76;71.94;100549.20;2885530;82;21063;-90
2022/05/05 15:24:37;;;;;;;16.85;10.78;;;;;;;20.87;71.28;100541.16;2849968;82;21043;-90
2022/05/05 15:28:40;;;;;;;24.30;10.70;;;;;;;20.96;71.59;100530.06;2887992;80;21003;-90
2022/05/05 15:32:42;;;;;;;10.45;9.38;;;;;;;21.10;71.27;100522.13;2835195;82;21023;-90
2022/05/05 15:36:43;;;;;;;12.85;11.50;;;;;;;21.21;69.72;100517.55;2893158;82;21078;-90
2022/05/05 15:40:44;;;;;;;10.30;8.98;;;;;;;21.30;71.02;100514.75;2887825;80;21007;-90
2022/05/05 15:44:45;;;;;;;11.40;10.03;;;;;;;21.28;70.65;100523.57;2774784;80;21000;-90
2022/05/05 15:48:47;;;;;;;11.05;8.55;;;;;;;21.21;70.88;100528.37;2886179;82;21027;-90
2022/05/05 15:52:49;;;;;;;6.08;5.47;;;;;;;21.05;66.50;100534.03;2859163;82;21055;-90
2022/05/05 15:56:50;;;;;;;6.25;5.65;;;;;;;20.95;67.22;100531.09;2841140;80;21046;-90
2022/05/05 16:00:51;;;;;;;6.03;5.42;;;;;;;20.92;68.05;100525.20;2751943;80;21045;-89
2022/05/05 16:04:52;;;;;;;7.33;6.20;;;;;;;20.87;66.47;100529.85;2834868;82;21571;-90
2022/05/05 16:08:53;;;;;;;6.12;5.53;;;;;;;20.86;67.14;100521.91;2788427;82;21012;-90
2022/05/05 16:12:55;;;;;;;6.47;4.87;;;;;;;20.86;68.06;100517.36;2865446;81;21003;-87
2022/05/05 16:16:57;;;;;;;8.08;5.70;;;;;;;20.87;68.17;100523.59;2841056;82;21031;-90
2022/05/05 16:20:58;;;;;;;23.87;7.83;;;;;;;20.94;68.28;100523.18;2824510;81;21167;-89
2022/05/05 16:33:23;;;;;;;5.33;4.92;;;;;;;21.20;69.18;100514.52;2844374;81;21031;-90
2022/05/05 16:37:25;;;;;;;7.03;6.35;;;;;;;21.32;69.37;100520.80;2873911;80;21035;-87
2022/05/05 16:41:26;;;;;;;6.95;5.50;;;;;;;21.32;69.01;100523.51;2895599;80;21062;-87
2022/05/05 16:45:28;;;;;;;3.42;2.87;;;;;;;20.97;68.48;100535.79;2895712;79;21016;-87
2022/05/05 16:49:29;;;;;;;3.20;2.90;;;;;;;20.46;66.37;100538.40;2895376;80;21129;-87
2022/05/05 16:53:30;;;;;;;4.20;3.52;;;;;;;20.03;67.68;100546.53;2897012;80;21074;-88
2022/05/05 16:57:31;;;;;;;4.22;3.92;;;;;;;19.69;68.72;100547.28;2903572;79;21633;-88
2022/05/05 17:01:33;;;;;;;3.12;2.87;;;;;;;19.38;70.44;100545.47;2810775;79;20995;-89
2022/05/05 17:05:34;;;;;;;5.00;3.75;;;;;;;19.12;69.95;100540.38;2884927;80;21015;-89
2022/05/05 17:09:35;;;;;;;3.20;2.90;;;;;;;18.79;70.42;100542.68;2908750;80;21007;-88
2022/05/05 17:13:39;;;;;;;2.70;2.45;;;;;;;18.50;71.05;100541.92;2918607;80;21018;-87
2022/05/05 17:17:42;;;;;;;2.70;2.50;;;;;;;18.26;71.12;100546.31;2765124;84;21055;-88
2022/05/05 17:21:43;;;;;;;4.03;2.95;;;;;;;18.05;72.27;100558.44;2798052;83;21595;-89
2022/05/05 17:25:45;;;;;;;2.77;2.40;;;;;;;17.82;73.64;100556.39;2800610;83;20992;-89
2022/05/05 17:29:46;;;;;;;3.52;2.52;;;;;;;17.65;74.20;100564.95;2758865;83;21685;-91
2022/05/05 17:33:47;;;;;;;4.55;2.62;;;;;;;17.60;74.76;100566.45;2831612;82;21050;-89
2022/05/05 17:37:51;;;;;;;3.00;2.80;;;;;;;17.63;74.49;100574.19;2784792;83;21040;-89
2022/05/05 17:41:53;;;;;;;7.10;3.80;;;;;;;17.68;74.67;100575.86;2831861;82;21007;-90
2022/05/05 17:50:33;;;;;;;4.90;4.50;;;;;;;17.77;74.72;100582.10;2827574;83;21585;-87
2022/05/05 17:54:35;;;;;;;4.72;3.85;;;;;;;17.73;74.31;100583.45;2827204;82;21040;-89
2022/05/05 17:58:36;;;;;;;4.37;3.98;;;;;;;17.74;74.12;100585.98;2815812;83;21569;-88
2022/05/05 18:02:37;;;;;;;3.50;3.17;;;;;;;17.81;74.07;100585.65;2829785;82;21018;-89
2022/05/05 18:06:38;;;;;;;6.12;4.33;;;;;;;17.86;73.55;100587.84;2829532;82;20991;-89
2022/05/05 18:10:39;;;;;;;4.53;3.83;;;;;;;17.91;73.19;100588.70;2816685;82;21013;-89
2022/05/05 18:14:41;;;;;;;4.08;3.52;;;;;;;17.92;73.00;100601.97;2807192;82;21504;-88
2022/05/05 18:18:45;;;;;;;4.12;3.60;;;;;;;17.93;72.94;100609.55;2756552;83;20993;-88
2022/05/05 18:22:46;;;;;;;5.72;4.35;;;;;;;17.82;73.78;100614.23;2773715;84;21078;-89
2022/05/05 18:26:48;;;;;;;13.75;5.62;;;;;;;17.75;73.86;100614.57;2737945;84;21098;-90
2022/05/05 18:30:50;;;;;;;8.55;4.50;;;;;;;17.78;74.34;100615.58;2778869;83;21066;-89
2022/05/05 18:34:51;;;;;;;4.62;3.47;;;;;;;17.78;74.16;100619.61;2791526;83;21112;-89
2022/05/05 18:38:52;;;;;;;3.92;3.52;;;;;;;17.74;74.21;100622.30;2860352;81;21619;-89
2022/05/05 18:42:53;;;;;;;8.55;4.25;;;;;;;17.70;74.23;100624.99;2803201;83;21697;-91
2022/05/05 18:46:55;;;;;;;3.85;3.55;;;;;;;17.61;76.43;100635.38;2852427;81;21540;-91
2022/05/05 18:50:56;;;;;;;7.45;4.78;;;;;;;17.40;77.32;100640.69;2799870;83;21797;-92
2022/05/05 18:54:57;;;;;;;19.82;14.03;;;;;;;17.26;77.96;100644.83;2860434;82;21063;-90
2022/05/05 18:59:00;;;;;;;21.48;12.82;;;;;;;17.12;78.85;100652.48;2867199;81;21558;-89
2022/05/05 19:03:02;;;;;;;10.05;8.00;;;;;;;16.90;79.48;100665.09;2836032;81;21060;-88
2022/05/05 19:07:04;;;;;;;12.93;10.70;;;;;;;16.82;79.50;100677.97;2858084;82;21050;-90
2022/05/05 19:11:07;;;;;;;8.10;6.55;;;;;;;16.67;80.12;100682.55;2862693;81;21559;-86
2022/05/05 19:15:09;;;;;;;9.45;7.00;;;;;;;16.57;80.54;100669.73;2827999;82;21482;-91
2022/05/05 19:19:11;;;;;;;15.78;7.92;;;;;;;16.63;80.48;100663.73;2891796;80;21116;-88
2022/05/05 19:23:12;;;;;;;11.28;7.75;;;;;;;16.73;80.54;100668.18;2922127;80;21019;-88
2022/05/05 19:27:13;;;;;;;14.20;8.00;;;;;;;16.88;80.44;100675.16;2873817;80;21070;-92
2022/05/05 19:31:15;;;;;;;20.70;12.07;;;;;;;16.87;80.27;100681.02;2871676;80;21058;-88
2022/05/05 19:35:16;;;;;;;23.10;14.85;;;;;;;16.89;80.27;100680.36;2865131;81;21027;-89
2022/05/05 19:39:18;;;;;;;12.23;8.20;;;;;;;16.97;80.14;100697.89;2908966;80;21155;-89